sensor_id;sensor_type;location;lat;lon;timestamp;P1;durP1;ratioP1;P2;durP2;ratioP2
69943;SDS011;57257;48.408;-4.498;2023-06-14T00:01:19;9.00;;;6.00;;
69943;SDS011;57257;48.408;-4.498;2023-06-14T00:03:46;6.75;;;6.75;;
69943;SDS011;57257;48.408;-4.498;2023-06-14T00:06:13;10.00;;;6.75;;
69943;SDS011;57257;48.408;-4.498;2023-06-14T00:08:39;11.75;;;9.75;;
69943;SDS011;57257;48.408;-4.498;2023-06-14T00:11:05;8.25;;;8.25;;
69943;SDS011;57257;48.408;-4.498;2023-06-14T00:13:31;9.00;;;8.00;;
69943;SDS011;57257;48.408;-4.498;2023-06-14T00:15:56;8.50;;;7.00;;
69943;SDS011;57257;48.408;-4.498;2023-06-14T00:18:22;4.50;;;4.00;;
69943;SDS011;57257;48.408;-4.498;2023-06-14T00:20:54;7.50;;;7.50;;
69943;SDS011;57257;48.408;-4.498;2023-06-14T00:23:20;9.00;;;9.00;;
69943;SDS011;57257;48.408;-4.498;2023-06-14T00:25:46;4.00;;;4.00;;
69943;SDS011;57257;48.408;-4.498;2023-06-14T00:28:11;10.00;;;10.00;;
69943;SDS011;57257;48.408;-4.498;2023-06-14T00:30:37;9.50;;;6.00;;
69943;SDS011;57257;48.408;-4.498;2023-06-14T00:33:02;10.50;;;6.50;;
69943;SDS011;57257;48.408;-4.498;2023-06-14T00:35:27;10.00;;;6.00;;
69943;SDS011;57257;48.408;-4.498;2023-06-14T00:37:53;10.25;;;7.00;;
69943;SDS011;57257;48.408;-4.498;2023-06-14T00:40:20;9.25;;;9.25;;
69943;SDS011;57257;48.408;-4.498;2023-06-14T00:42:46;9.00;;;7.50;;
69943;SDS011;57257;48.408;-4.498;2023-06-14T00:45:12;6.25;;;5.00;;
69943;SDS011;57257;48.408;-4.498;2023-06-14T00:47:37;7.00;;;6.00;;
69943;SDS011;57257;48.408;-4.498;2023-06-14T00:50:06;6.00;;;5.50;;
69943;SDS011;57257;48.408;-4.498;2023-06-14T00:52:32;13.25;;;9.00;;
69943;SDS011;57257;48.408;-4.498;2023-06-14T00:54:59;10.00;;;8.00;;
69943;SDS011;57257;48.408;-4.498;2023-06-14T00:57:25;9.75;;;6.00;;
69943;SDS011;57257;48.408;-4.498;2023-06-14T00:59:51;6.00;;;6.00;;
69943;SDS011;57257;48.408;-4.498;2023-06-14T01:02:17;5.25;;;4.00;;
69943;SDS011;57257;48.408;-4.498;2023-06-14T01:04:46;5.75;;;5.50;;
69943;SDS011;57257;48.408;-4.498;2023-06-14T01:15:35;8.00;;;4.50;;
69943;SDS011;57257;48.408;-4.498;2023-06-14T01:18:03;7.75;;;3.50;;
69943;SDS011;57257;48.408;-4.498;2023-06-14T01:20:29;5.50;;;4.00;;
69943;SDS011;57257;48.408;-4.498;2023-06-14T01:22:57;3.50;;;3.50;;
69943;SDS011;57257;48.408;-4.498;2023-06-14T01:25:23;2.50;;;2.50;;
69943;SDS011;57257;48.408;-4.498;2023-06-14T01:27:50;4.50;;;4.50;;
69943;SDS011;57257;48.408;-4.498;2023-06-14T01:30:25;3.75;;;3.75;;
69943;SDS011;57257;48.408;-4.498;2023-06-14T01:32:52;3.00;;;3.00;;
69943;SDS011;57257;48.408;-4.498;2023-06-14T01:35:19;3.25;;;1.25;;
69943;SDS011;57257;48.408;-4.498;2023-06-14T01:37:46;5.50;;;5.00;;
69943;SDS011;57257;48.408;-4.498;2023-06-14T01:40:14;3.00;;;3.00;;
69943;SDS011;57257;48.408;-4.498;2023-06-14T01:42:40;6.00;;;3.00;;
69943;SDS011;57257;48.408;-4.498;2023-06-14T01:45:07;3.25;;;3.25;;
69943;SDS011;57257;48.408;-4.498;2023-06-14T01:47:34;2.00;;;2.00;;
69943;SDS011;57257;48.408;-4.498;2023-06-14T01:50:03;3.25;;;2.50;;
69943;SDS011;57257;48.408;-4.498;2023-06-14T01:52:29;3.25;;;3.00;;
69943;SDS011;57257;48.408;-4.498;2023-06-14T01:54:54;3.00;;;3.00;;
69943;SDS011;57257;48.408;-4.498;2023-06-14T01:57:20;5.00;;;3.00;;
69943;SDS011;57257;48.408;-4.498;2023-06-14T01:59:46;3.25;;;0.50;;
69943;SDS011;57257;48.408;-4.498;2023-06-14T02:02:15;3.50;;;3.50;;
69943;SDS011;57257;48.408;-4.498;2023-06-14T02:04:41;4.50;;;4.50;;
69943;SDS011;57257;48.408;-4.498;2023-06-14T02:07:07;2.00;;;2.00;;
69943;SDS011;57257;48.408;-4.498;2023-06-14T02:09:33;5.00;;;4.25;;
69943;SDS011;57257;48.408;-4.498;2023-06-14T02:12:00;3.25;;;2.50;;
69943;SDS011;57257;48.408;-4.498;2023-06-14T02:14:25;8.00;;;1.50;;
69943;SDS011;57257;48.408;-4.498;2023-06-14T02:16:51;2.00;;;2.00;;
69943;SDS011;57257;48.408;-4.498;2023-06-14T02:19:18;6.25;;;3.00;;
69943;SDS011;57257;48.408;-4.498;2023-06-14T02:21:44;1.00;;;1.00;;
69943;SDS011;57257;48.408;-4.498;2023-06-14T02:24:10;1.00;;;1.00;;
69943;SDS011;57257;48.408;-4.498;2023-06-14T02:26:36;4.00;;;4.00;;
69943;SDS011;57257;48.408;-4.498;2023-06-14T02:29:03;7.75;;;2.50;;
69943;SDS011;57257;48.408;-4.498;2023-06-14T02:31:30;11.00;;;4.00;;
69943;SDS011;57257;48.408;-4.498;2023-06-14T02:33:56;3.75;;;3.75;;
69943;SDS011;57257;48.408;-4.498;2023-06-14T02:36:22;3.00;;;3.00;;
69943;SDS011;57257;48.408;-4.498;2023-06-14T02:38:47;3.00;;;3.00;;
69943;SDS011;57257;48.408;-4.498;2023-06-14T02:41:13;6.25;;;4.00;;
69943;SDS011;57257;48.408;-4.498;2023-06-14T02:43:38;5.00;;;4.00;;
69943;SDS011;57257;48.408;-4.498;2023-06-14T02:46:04;4.00;;;4.00;;
69943;SDS011;57257;48.408;-4.498;2023-06-14T02:48:29;4.50;;;3.25;;
69943;SDS011;57257;48.408;-4.498;2023-06-14T02:50:55;3.00;;;3.00;;
69943;SDS011;57257;48.408;-4.498;2023-06-14T02:53:21;3.00;;;3.00;;
69943;SDS011;57257;48.408;-4.498;2023-06-14T02:55:47;5.00;;;4.00;;
69943;SDS011;57257;48.408;-4.498;2023-06-14T02:58:13;3.00;;;3.00;;
69943;SDS011;57257;48.408;-4.498;2023-06-14T03:00:39;6.00;;;3.00;;
69943;SDS011;57257;48.408;-4.498;2023-06-14T03:03:06;6.00;;;3.75;;
69943;SDS011;57257;48.408;-4.498;2023-06-14T03:05:38;7.25;;;3.75;;
69943;SDS011;57257;48.408;-4.498;2023-06-14T03:08:06;0.00;;;0.00;;
69943;SDS011;57257;48.408;-4.498;2023-06-14T03:10:32;5.00;;;4.00;;
69943;SDS011;57257;48.408;-4.498;2023-06-14T03:12:57;3.25;;;3.00;;
69943;SDS011;57257;48.408;-4.498;2023-06-14T03:15:23;2.00;;;1.50;;
69943;SDS011;57257;48.408;-4.498;2023-06-14T03:17:49;3.75;;;3.75;;
69943;SDS011;57257;48.408;-4.498;2023-06-14T03:20:15;3.25;;;3.25;;
69943;SDS011;57257;48.408;-4.498;2023-06-14T03:22:41;4.00;;;2.50;;
69943;SDS011;57257;48.408;-4.498;2023-06-14T03:25:07;3.00;;;1.00;;
69943;SDS011;57257;48.408;-4.498;2023-06-14T03:27:34;3.75;;;3.75;;
69943;SDS011;57257;48.408;-4.498;2023-06-14T03:30:00;1.50;;;1.50;;
69943;SDS011;57257;48.408;-4.498;2023-06-14T03:32:25;3.00;;;3.00;;
69943;SDS011;57257;48.408;-4.498;2023-06-14T03:34:51;3.25;;;3.25;;
69943;SDS011;57257;48.408;-4.498;2023-06-14T03:37:17;6.75;;;3.00;;
69943;SDS011;57257;48.408;-4.498;2023-06-14T03:39:43;4.00;;;4.00;;
69943;SDS011;57257;48.408;-4.498;2023-06-14T03:42:12;3.00;;;3.00;;
69943;SDS011;57257;48.408;-4.498;2023-06-14T03:44:39;3.00;;;3.00;;
69943;SDS011;57257;48.408;-4.498;2023-06-14T03:47:04;3.00;;;3.00;;
69943;SDS011;57257;48.408;-4.498;2023-06-14T03:49:30;3.00;;;3.00;;
69943;SDS011;57257;48.408;-4.498;2023-06-14T03:51:55;4.50;;;3.00;;
69943;SDS011;57257;48.408;-4.498;2023-06-14T03:54:21;1.00;;;1.00;;
69943;SDS011;57257;48.408;-4.498;2023-06-14T03:56:46;3.00;;;3.00;;
69943;SDS011;57257;48.408;-4.498;2023-06-14T03:59:12;4.00;;;3.00;;
69943;SDS011;57257;48.408;-4.498;2023-06-14T04:01:37;3.00;;;3.00;;
69943;SDS011;57257;48.408;-4.498;2023-06-14T04:04:09;3.25;;;2.50;;
69943;SDS011;57257;48.408;-4.498;2023-06-14T04:06:35;1.00;;;1.00;;
69943;SDS011;57257;48.408;-4.498;2023-06-14T04:09:00;3.00;;;1.50;;
69943;SDS011;57257;48.408;-4.498;2023-06-14T04:11:27;1.00;;;1.00;;
69943;SDS011;57257;48.408;-4.498;2023-06-14T04:13:54;3.00;;;1.00;;
69943;SDS011;57257;48.408;-4.498;2023-06-14T04:16:21;6.00;;;1.00;;
69943;SDS011;57257;48.408;-4.498;2023-06-14T04:18:47;0.00;;;0.00;;
69943;SDS011;57257;48.408;-4.498;2023-06-14T04:21:13;1.00;;;1.00;;
69943;SDS011;57257;48.408;-4.498;2023-06-14T04:23:38;1.00;;;1.00;;
69943;SDS011;57257;48.408;-4.498;2023-06-14T04:26:04;4.00;;;2.00;;
69943;SDS011;57257;48.408;-4.498;2023-06-14T04:28:29;0.25;;;0.25;;
69943;SDS011;57257;48.408;-4.498;2023-06-14T04:30:55;1.50;;;1.00;;
69943;SDS011;57257;48.408;-4.498;2023-06-14T04:33:21;3.00;;;3.00;;
69943;SDS011;57257;48.408;-4.498;2023-06-14T04:35:47;1.00;;;1.00;;
69943;SDS011;57257;48.408;-4.498;2023-06-14T04:38:13;3.75;;;2.00;;
69943;SDS011;57257;48.408;-4.498;2023-06-14T04:40:41;3.25;;;3.00;;
69943;SDS011;57257;48.408;-4.498;2023-06-14T04:43:11;8.50;;;1.50;;
69943;SDS011;57257;48.408;-4.498;2023-06-14T04:45:42;1.00;;;1.00;;
69943;SDS011;57257;48.408;-4.498;2023-06-14T04:48:10;2.00;;;2.00;;
69943;SDS011;57257;48.408;-4.498;2023-06-14T04:50:35;1.00;;;1.00;;
69943;SDS011;57257;48.408;-4.498;2023-06-14T04:53:01;3.25;;;3.25;;
69943;SDS011;57257;48.408;-4.498;2023-06-14T04:55:26;0.25;;;0.25;;
69943;SDS011;57257;48.408;-4.498;2023-06-14T04:57:52;3.00;;;3.00;;
69943;SDS011;57257;48.408;-4.498;2023-06-14T05:00:20;2.00;;;2.00;;
69943;SDS011;57257;48.408;-4.498;2023-06-14T05:02:46;4.00;;;3.00;;
69943;SDS011;57257;48.408;-4.498;2023-06-14T05:05:12;2.25;;;1.00;;
69943;SDS011;57257;48.408;-4.498;2023-06-14T05:07:37;1.00;;;1.00;;
69943;SDS011;57257;48.408;-4.498;2023-06-14T05:10:03;1.00;;;1.00;;
69943;SDS011;57257;48.408;-4.498;2023-06-14T05:12:29;0.00;;;0.00;;
69943;SDS011;57257;48.408;-4.498;2023-06-14T05:14:54;3.00;;;0.00;;
69943;SDS011;57257;48.408;-4.498;2023-06-14T05:17:19;3.00;;;0.75;;
69943;SDS011;57257;48.408;-4.498;2023-06-14T05:19:45;1.00;;;0.25;;
69943;SDS011;57257;48.408;-4.498;2023-06-14T05:22:11;3.25;;;3.25;;
69943;SDS011;57257;48.408;-4.498;2023-06-14T05:24:36;3.50;;;2.00;;
69943;SDS011;57257;48.408;-4.498;2023-06-14T05:27:02;3.25;;;1.00;;
69943;SDS011;57257;48.408;-4.498;2023-06-14T05:29:28;1.50;;;1.50;;
69943;SDS011;57257;48.408;-4.498;2023-06-14T05:31:53;2.00;;;1.00;;
69943;SDS011;57257;48.408;-4.498;2023-06-14T05:34:18;2.50;;;2.50;;
69943;SDS011;57257;48.408;-4.498;2023-06-14T05:36:44;1.50;;;1.50;;
69943;SDS011;57257;48.408;-4.498;2023-06-14T05:39:10;5.25;;;3.00;;
69943;SDS011;57257;48.408;-4.498;2023-06-14T05:41:35;3.75;;;3.75;;
69943;SDS011;57257;48.408;-4.498;2023-06-14T05:44:01;3.00;;;3.00;;
69943;SDS011;57257;48.408;-4.498;2023-06-14T05:46:26;6.75;;;5.50;;
69943;SDS011;57257;48.408;-4.498;2023-06-14T05:48:52;3.00;;;3.00;;
69943;SDS011;57257;48.408;-4.498;2023-06-14T05:51:17;0.00;;;0.00;;
69943;SDS011;57257;48.408;-4.498;2023-06-14T05:53:46;2.50;;;2.50;;
69943;SDS011;57257;48.408;-4.498;2023-06-14T05:56:12;3.50;;;3.50;;
69943;SDS011;57257;48.408;-4.498;2023-06-14T05:58:38;3.75;;;1.50;;
69943;SDS011;57257;48.408;-4.498;2023-06-14T06:01:04;1.00;;;1.00;;
69943;SDS011;57257;48.408;-4.498;2023-06-14T06:03:30;1.50;;;1.00;;
69943;SDS011;57257;48.408;-4.498;2023-06-14T06:05:55;1.00;;;1.00;;
69943;SDS011;57257;48.408;-4.498;2023-06-14T06:08:21;1.00;;;1.00;;
69943;SDS011;57257;48.408;-4.498;2023-06-14T06:10:46;3.00;;;3.00;;
69943;SDS011;57257;48.408;-4.498;2023-06-14T06:13:12;6.00;;;3.00;;
69943;SDS011;57257;48.408;-4.498;2023-06-14T06:15:37;2.50;;;2.50;;
69943;SDS011;57257;48.408;-4.498;2023-06-14T06:18:02;1.50;;;1.50;;
69943;SDS011;57257;48.408;-4.498;2023-06-14T06:20:28;1.00;;;1.00;;
69943;SDS011;57257;48.408;-4.498;2023-06-14T06:22:56;3.00;;;3.00;;
69943;SDS011;57257;48.408;-4.498;2023-06-14T06:25:23;3.00;;;3.00;;
69943;SDS011;57257;48.408;-4.498;2023-06-14T06:27:50;6.00;;;3.75;;
69943;SDS011;57257;48.408;-4.498;2023-06-14T06:30:17;4.00;;;3.00;;
69943;SDS011;57257;48.408;-4.498;2023-06-14T06:32:43;3.00;;;3.00;;
69943;SDS011;57257;48.408;-4.498;2023-06-14T06:35:08;5.00;;;3.00;;
69943;SDS011;57257;48.408;-4.498;2023-06-14T06:37:35;1.50;;;1.50;;
69943;SDS011;57257;48.408;-4.498;2023-06-14T06:40:01;3.50;;;3.00;;
69943;SDS011;57257;48.408;-4.498;2023-06-14T06:42:28;2.50;;;2.50;;
69943;SDS011;57257;48.408;-4.498;2023-06-14T06:44:54;1.00;;;1.00;;
69943;SDS011;57257;48.408;-4.498;2023-06-14T06:47:19;1.00;;;1.00;;
69943;SDS011;57257;48.408;-4.498;2023-06-14T06:49:45;3.00;;;3.00;;
69943;SDS011;57257;48.408;-4.498;2023-06-14T06:52:10;6.00;;;3.25;;
69943;SDS011;57257;48.408;-4.498;2023-06-14T06:54:36;3.00;;;3.00;;
69943;SDS011;57257;48.408;-4.498;2023-06-14T06:57:01;3.00;;;3.00;;
69943;SDS011;57257;48.408;-4.498;2023-06-14T06:59:27;2.25;;;1.00;;
69943;SDS011;57257;48.408;-4.498;2023-06-14T07:01:52;3.50;;;3.00;;
69943;SDS011;57257;48.408;-4.498;2023-06-14T07:04:18;3.00;;;3.00;;
69943;SDS011;57257;48.408;-4.498;2023-06-14T07:06:46;1.50;;;1.50;;
69943;SDS011;57257;48.408;-4.498;2023-06-14T07:09:12;3.00;;;3.00;;
69943;SDS011;57257;48.408;-4.498;2023-06-14T07:11:39;4.00;;;2.50;;
69943;SDS011;57257;48.408;-4.498;2023-06-14T07:14:05;3.25;;;3.00;;
69943;SDS011;57257;48.408;-4.498;2023-06-14T07:16:31;4.25;;;2.50;;
69943;SDS011;57257;48.408;-4.498;2023-06-14T07:18:57;3.00;;;3.00;;
69943;SDS011;57257;48.408;-4.498;2023-06-14T07:21:22;4.75;;;3.50;;
69943;SDS011;57257;48.408;-4.498;2023-06-14T07:23:47;3.00;;;3.00;;
69943;SDS011;57257;48.408;-4.498;2023-06-14T07:26:13;2.00;;;1.00;;
69943;SDS011;57257;48.408;-4.498;2023-06-14T07:28:38;1.00;;;1.00;;
69943;SDS011;57257;48.408;-4.498;2023-06-14T07:31:04;6.00;;;3.00;;
69943;SDS011;57257;48.408;-4.498;2023-06-14T07:33:30;5.50;;;3.75;;
69943;SDS011;57257;48.408;-4.498;2023-06-14T07:35:55;4.75;;;2.00;;
69943;SDS011;57257;48.408;-4.498;2023-06-14T07:38:21;3.75;;;3.75;;
69943;SDS011;57257;48.408;-4.498;2023-06-14T07:40:46;3.00;;;3.00;;
69943;SDS011;57257;48.408;-4.498;2023-06-14T07:43:12;3.00;;;3.00;;
69943;SDS011;57257;48.408;-4.498;2023-06-14T07:45:37;3.25;;;3.25;;
69943;SDS011;57257;48.408;-4.498;2023-06-14T07:48:03;6.50;;;4.00;;
69943;SDS011;57257;48.408;-4.498;2023-06-14T07:50:29;6.00;;;1.50;;
69943;SDS011;57257;48.408;-4.498;2023-06-14T07:52:55;1.00;;;1.00;;
69943;SDS011;57257;48.408;-4.498;2023-06-14T07:55:20;6.00;;;4.00;;
69943;SDS011;57257;48.408;-4.498;2023-06-14T07:57:45;2.50;;;2.50;;
69943;SDS011;57257;48.408;-4.498;2023-06-14T08:00:11;1.00;;;1.00;;
69943;SDS011;57257;48.408;-4.498;2023-06-14T08:02:40;7.00;;;5.00;;
69943;SDS011;57257;48.408;-4.498;2023-06-14T08:05:10;8.50;;;6.00;;
69943;SDS011;57257;48.408;-4.498;2023-06-14T08:07:39;3.75;;;3.75;;
69943;SDS011;57257;48.408;-4.498;2023-06-14T08:10:05;4.00;;;4.00;;
69943;SDS011;57257;48.408;-4.498;2023-06-14T08:12:31;7.00;;;4.00;;
69943;SDS011;57257;48.408;-4.498;2023-06-14T08:14:57;6.75;;;6.75;;
69943;SDS011;57257;48.408;-4.498;2023-06-14T08:17:23;6.00;;;6.00;;
69943;SDS011;57257;48.408;-4.498;2023-06-14T08:19:55;5.00;;;5.00;;
69943;SDS011;57257;48.408;-4.498;2023-06-14T08:22:22;3.00;;;3.00;;
69943;SDS011;57257;48.408;-4.498;2023-06-14T08:24:49;4.00;;;4.00;;
69943;SDS011;57257;48.408;-4.498;2023-06-14T08:27:15;4.00;;;4.00;;
69943;SDS011;57257;48.408;-4.498;2023-06-14T08:29:40;6.00;;;6.00;;
69943;SDS011;57257;48.408;-4.498;2023-06-14T08:32:06;6.00;;;6.00;;
69943;SDS011;57257;48.408;-4.498;2023-06-14T08:34:32;7.50;;;6.00;;
69943;SDS011;57257;48.408;-4.498;2023-06-14T08:36:57;5.50;;;5.50;;
69943;SDS011;57257;48.408;-4.498;2023-06-14T08:39:23;6.50;;;6.00;;
69943;SDS011;57257;48.408;-4.498;2023-06-14T08:41:48;6.50;;;6.25;;
69943;SDS011;57257;48.408;-4.498;2023-06-14T08:44:17;9.00;;;6.00;;
69943;SDS011;57257;48.408;-4.498;2023-06-14T08:46:43;6.00;;;6.00;;
69943;SDS011;57257;48.408;-4.498;2023-06-14T08:49:11;6.50;;;6.50;;
69943;SDS011;57257;48.408;-4.498;2023-06-14T08:51:37;6.50;;;5.00;;
69943;SDS011;57257;48.408;-4.498;2023-06-14T08:54:03;6.75;;;6.00;;
69943;SDS011;57257;48.408;-4.498;2023-06-14T08:56:30;5.00;;;3.00;;
69943;SDS011;57257;48.408;-4.498;2023-06-14T08:58:57;6.75;;;6.25;;
69943;SDS011;57257;48.408;-4.498;2023-06-14T09:01:27;6.00;;;4.50;;
69943;SDS011;57257;48.408;-4.498;2023-06-14T09:03:53;9.00;;;9.00;;
69943;SDS011;57257;48.408;-4.498;2023-06-14T09:06:22;3.00;;;3.00;;
69943;SDS011;57257;48.408;-4.498;2023-06-14T09:08:49;8.25;;;7.00;;
69943;SDS011;57257;48.408;-4.498;2023-06-14T09:11:16;10.00;;;9.25;;
69943;SDS011;57257;48.408;-4.498;2023-06-14T09:13:44;7.00;;;7.00;;
69943;SDS011;57257;48.408;-4.498;2023-06-14T09:16:10;6.25;;;4.50;;
69943;SDS011;57257;48.408;-4.498;2023-06-14T09:18:36;6.75;;;6.25;;
69943;SDS011;57257;48.408;-4.498;2023-06-14T09:21:06;6.00;;;6.00;;
69943;SDS011;57257;48.408;-4.498;2023-06-14T09:23:39;5.50;;;5.50;;
69943;SDS011;57257;48.408;-4.498;2023-06-14T09:26:09;7.50;;;7.50;;
69943;SDS011;57257;48.408;-4.498;2023-06-14T09:28:36;10.50;;;7.00;;
69943;SDS011;57257;48.408;-4.498;2023-06-14T09:31:05;6.25;;;6.00;;
69943;SDS011;57257;48.408;-4.498;2023-06-14T09:33:33;8.00;;;7.00;;
69943;SDS011;57257;48.408;-4.498;2023-06-14T09:35:59;7.00;;;7.00;;
69943;SDS011;57257;48.408;-4.498;2023-06-14T09:38:24;8.00;;;6.50;;
69943;SDS011;57257;48.408;-4.498;2023-06-14T09:40:50;11.50;;;11.00;;
69943;SDS011;57257;48.408;-4.498;2023-06-14T09:43:16;8.75;;;7.00;;
69943;SDS011;57257;48.408;-4.498;2023-06-14T09:45:43;9.75;;;7.00;;
69943;SDS011;57257;48.408;-4.498;2023-06-14T09:48:11;12.00;;;9.50;;
69943;SDS011;57257;48.408;-4.498;2023-06-14T09:50:37;9.75;;;9.25;;
69943;SDS011;57257;48.408;-4.498;2023-06-14T09:53:04;12.50;;;10.50;;
69943;SDS011;57257;48.408;-4.498;2023-06-14T09:55:33;10.00;;;10.00;;
69943;SDS011;57257;48.408;-4.498;2023-06-14T09:58:02;10.50;;;9.00;;
69943;SDS011;57257;48.408;-4.498;2023-06-14T10:00:31;12.00;;;12.00;;
69943;SDS011;57257;48.408;-4.498;2023-06-14T10:03:00;13.75;;;11.50;;
69943;SDS011;57257;48.408;-4.498;2023-06-14T10:05:28;18.00;;;12.00;;
69943;SDS011;57257;48.408;-4.498;2023-06-14T10:10:30;11.00;;;10.00;;
69943;SDS011;57257;48.408;-4.498;2023-06-14T10:12:56;12.00;;;12.00;;
69943;SDS011;57257;48.408;-4.498;2023-06-14T10:21:06;8.75;;;8.25;;
69943;SDS011;57257;48.408;-4.498;2023-06-14T10:23:41;11.00;;;9.25;;
69943;SDS011;57257;48.408;-4.498;2023-06-14T10:26:13;10.00;;;10.00;;
69943;SDS011;57257;48.408;-4.498;2023-06-14T10:28:56;10.50;;;9.50;;
69943;SDS011;57257;48.408;-4.498;2023-06-14T10:31:32;6.50;;;6.50;;
69943;SDS011;57257;48.408;-4.498;2023-06-14T10:34:06;12.50;;;9.50;;
69943;SDS011;57257;48.408;-4.498;2023-06-14T10:36:31;15.75;;;12.00;;
69943;SDS011;57257;48.408;-4.498;2023-06-14T10:39:10;14.75;;;10.00;;
69943;SDS011;57257;48.408;-4.498;2023-06-14T10:41:40;13.00;;;13.00;;
69943;SDS011;57257;48.408;-4.498;2023-06-14T10:46:38;13.25;;;13.25;;
69943;SDS011;57257;48.408;-4.498;2023-06-14T10:49:05;15.25;;;15.25;;
69943;SDS011;57257;48.408;-4.498;2023-06-14T10:51:41;12.00;;;12.00;;
69943;SDS011;57257;48.408;-4.498;2023-06-14T10:54:12;12.00;;;11.50;;
69943;SDS011;57257;48.408;-4.498;2023-06-14T10:56:39;9.50;;;9.00;;
69943;SDS011;57257;48.408;-4.498;2023-06-14T10:59:12;18.50;;;12.25;;
69943;SDS011;57257;48.408;-4.498;2023-06-14T11:01:41;9.25;;;7.50;;
69943;SDS011;57257;48.408;-4.498;2023-06-14T11:04:49;12.00;;;12.00;;
69943;SDS011;57257;48.408;-4.498;2023-06-14T11:10:09;12.50;;;12.50;;
69943;SDS011;57257;48.408;-4.498;2023-06-14T11:12:45;20.50;;;16.50;;
69943;SDS011;57257;48.408;-4.498;2023-06-14T11:15:13;13.00;;;12.25;;
69943;SDS011;57257;48.408;-4.498;2023-06-14T11:17:39;15.25;;;12.00;;
69943;SDS011;57257;48.408;-4.498;2023-06-14T11:20:14;18.50;;;14.75;;
69943;SDS011;57257;48.408;-4.498;2023-06-14T11:22:43;18.25;;;18.00;;
69943;SDS011;57257;48.408;-4.498;2023-06-14T11:25:09;20.25;;;16.00;;
69943;SDS011;57257;48.408;-4.498;2023-06-14T11:27:36;17.25;;;17.25;;
69943;SDS011;57257;48.408;-4.498;2023-06-14T11:30:02;16.25;;;14.25;;
69943;SDS011;57257;48.408;-4.498;2023-06-14T11:32:28;17.00;;;14.50;;
69943;SDS011;57257;48.408;-4.498;2023-06-14T11:34:56;20.50;;;18.75;;
69943;SDS011;57257;48.408;-4.498;2023-06-14T11:37:23;13.50;;;10.00;;
69943;SDS011;57257;48.408;-4.498;2023-06-14T11:39:51;15.75;;;11.50;;
69943;SDS011;57257;48.408;-4.498;2023-06-14T11:42:17;12.25;;;10.50;;
69943;SDS011;57257;48.408;-4.498;2023-06-14T11:44:45;18.75;;;15.50;;
69943;SDS011;57257;48.408;-4.498;2023-06-14T11:47:11;13.00;;;13.00;;
69943;SDS011;57257;48.408;-4.498;2023-06-14T11:49:37;16.75;;;12.50;;
69943;SDS011;57257;48.408;-4.498;2023-06-14T11:52:03;21.25;;;15.50;;
69943;SDS011;57257;48.408;-4.498;2023-06-14T11:54:30;17.75;;;16.00;;
69943;SDS011;57257;48.408;-4.498;2023-06-14T11:56:56;22.25;;;17.25;;
69943;SDS011;57257;48.408;-4.498;2023-06-14T11:59:22;12.25;;;9.75;;
69943;SDS011;57257;48.408;-4.498;2023-06-14T12:01:47;12.75;;;12.75;;
69943;SDS011;57257;48.408;-4.498;2023-06-14T12:04:13;8.50;;;8.50;;
69943;SDS011;57257;48.408;-4.498;2023-06-14T12:06:38;18.75;;;15.00;;
69943;SDS011;57257;48.408;-4.498;2023-06-14T12:09:07;20.00;;;12.00;;
69943;SDS011;57257;48.408;-4.498;2023-06-14T12:11:38;19.25;;;12.25;;
69943;SDS011;57257;48.408;-4.498;2023-06-14T12:14:04;15.75;;;14.50;;
69943;SDS011;57257;48.408;-4.498;2023-06-14T12:16:33;12.50;;;10.50;;
69943;SDS011;57257;48.408;-4.498;2023-06-14T12:19:11;21.50;;;16.00;;
69943;SDS011;57257;48.408;-4.498;2023-06-14T12:21:38;20.25;;;15.00;;
69943;SDS011;57257;48.408;-4.498;2023-06-14T12:24:07;16.25;;;12.50;;
69943;SDS011;57257;48.408;-4.498;2023-06-14T12:26:33;21.50;;;12.75;;
69943;SDS011;57257;48.408;-4.498;2023-06-14T12:29:04;11.00;;;11.00;;
69943;SDS011;57257;48.408;-4.498;2023-06-14T12:31:30;11.25;;;11.25;;
69943;SDS011;57257;48.408;-4.498;2023-06-14T12:33:55;13.50;;;12.50;;
69943;SDS011;57257;48.408;-4.498;2023-06-14T12:36:21;14.50;;;10.50;;
69943;SDS011;57257;48.408;-4.498;2023-06-14T12:38:46;17.00;;;13.00;;
69943;SDS011;57257;48.408;-4.498;2023-06-14T12:41:12;9.75;;;9.75;;
69943;SDS011;57257;48.408;-4.498;2023-06-14T12:43:39;11.50;;;11.50;;
69943;SDS011;57257;48.408;-4.498;2023-06-14T12:46:05;18.00;;;12.00;;
69943;SDS011;57257;48.408;-4.498;2023-06-14T12:48:30;17.50;;;12.00;;
69943;SDS011;57257;48.408;-4.498;2023-06-14T12:50:56;12.75;;;12.75;;
69943;SDS011;57257;48.408;-4.498;2023-06-14T12:53:23;18.00;;;12.75;;
69943;SDS011;57257;48.408;-4.498;2023-06-14T12:55:48;13.25;;;12.00;;
69943;SDS011;57257;48.408;-4.498;2023-06-14T12:58:15;13.00;;;9.75;;
69943;SDS011;57257;48.408;-4.498;2023-06-14T13:00:42;15.50;;;9.00;;
69943;SDS011;57257;48.408;-4.498;2023-06-14T13:03:07;14.50;;;11.00;;
69943;SDS011;57257;48.408;-4.498;2023-06-14T13:05:34;12.00;;;12.00;;
69943;SDS011;57257;48.408;-4.498;2023-06-14T13:08:00;15.75;;;12.50;;
69943;SDS011;57257;48.408;-4.498;2023-06-14T13:10:25;14.50;;;12.00;;
69943;SDS011;57257;48.408;-4.498;2023-06-14T13:12:52;20.25;;;12.25;;
69943;SDS011;57257;48.408;-4.498;2023-06-14T13:15:17;15.25;;;14.75;;
69943;SDS011;57257;48.408;-4.498;2023-06-14T13:17:42;16.50;;;15.00;;
69943;SDS011;57257;48.408;-4.498;2023-06-14T13:20:13;16.00;;;15.75;;
69943;SDS011;57257;48.408;-4.498;2023-06-14T13:22:39;12.50;;;12.00;;
69943;SDS011;57257;48.408;-4.498;2023-06-14T13:25:04;11.00;;;7.50;;
69943;SDS011;57257;48.408;-4.498;2023-06-14T13:27:31;12.50;;;12.50;;
69943;SDS011;57257;48.408;-4.498;2023-06-14T13:29:56;17.50;;;15.00;;
69943;SDS011;57257;48.408;-4.498;2023-06-14T13:32:22;16.00;;;13.25;;
69943;SDS011;57257;48.408;-4.498;2023-06-14T13:34:48;14.75;;;14.00;;
69943;SDS011;57257;48.408;-4.498;2023-06-14T13:37:13;14.50;;;12.25;;
69943;SDS011;57257;48.408;-4.498;2023-06-14T13:39:39;19.00;;;15.50;;
69943;SDS011;57257;48.408;-4.498;2023-06-14T13:42:04;21.00;;;15.25;;
69943;SDS011;57257;48.408;-4.498;2023-06-14T13:44:30;18.50;;;15.50;;
69943;SDS011;57257;48.408;-4.498;2023-06-14T13:46:55;15.75;;;13.00;;
69943;SDS011;57257;48.408;-4.498;2023-06-14T13:49:21;15.50;;;13.00;;
69943;SDS011;57257;48.408;-4.498;2023-06-14T13:51:47;17.00;;;17.00;;
69943;SDS011;57257;48.408;-4.498;2023-06-14T13:54:13;17.50;;;15.00;;
69943;SDS011;57257;48.408;-4.498;2023-06-14T13:56:41;18.00;;;11.75;;
69943;SDS011;57257;48.408;-4.498;2023-06-14T13:59:07;18.50;;;15.25;;
69943;SDS011;57257;48.408;-4.498;2023-06-14T14:01:32;18.25;;;17.50;;
69943;SDS011;57257;48.408;-4.498;2023-06-14T14:03:58;22.50;;;19.00;;
69943;SDS011;57257;48.408;-4.498;2023-06-14T14:06:25;19.50;;;17.00;;
69943;SDS011;57257;48.408;-4.498;2023-06-14T14:08:51;19.50;;;15.75;;
69943;SDS011;57257;48.408;-4.498;2023-06-14T14:11:17;17.00;;;14.50;;
69943;SDS011;57257;48.408;-4.498;2023-06-14T14:13:43;19.00;;;15.00;;
69943;SDS011;57257;48.408;-4.498;2023-06-14T14:16:09;13.00;;;12.50;;
69943;SDS011;57257;48.408;-4.498;2023-06-14T14:18:35;10.00;;;10.00;;
69943;SDS011;57257;48.408;-4.498;2023-06-14T14:21:02;16.00;;;13.50;;
69943;SDS011;57257;48.408;-4.498;2023-06-14T14:23:28;15.75;;;13.00;;
69943;SDS011;57257;48.408;-4.498;2023-06-14T14:25:53;18.75;;;14.75;;
69943;SDS011;57257;48.408;-4.498;2023-06-14T14:28:19;16.25;;;15.00;;
69943;SDS011;57257;48.408;-4.498;2023-06-14T14:30:45;16.50;;;15.50;;
69943;SDS011;57257;48.408;-4.498;2023-06-14T14:33:12;15.25;;;12.25;;
69943;SDS011;57257;48.408;-4.498;2023-06-14T14:35:45;15.25;;;13.00;;
69943;SDS011;57257;48.408;-4.498;2023-06-14T14:38:11;12.50;;;12.50;;
69943;SDS011;57257;48.408;-4.498;2023-06-14T14:40:37;20.50;;;15.25;;
69943;SDS011;57257;48.408;-4.498;2023-06-14T14:43:03;25.25;;;20.25;;
69943;SDS011;57257;48.408;-4.498;2023-06-14T14:45:30;13.00;;;13.00;;